Clontarf — VZBX — position and weather

sailwx.info

Track history (hours):
 
Tides and Currents Weather Stations Pressure Air Temp Water Temp Dewpoint Dewpoint Depression Visibility Wind Speed Wind Dir Waves Ship Positions

Clontarf

Last reported at 2018-Jun-23 13:59 UTC. Time now 2018-Jun-23 14:18 UTC.
Position S 27°22' E 153°10'.

Length 30 m; draft 5.6 m.

Type: Tug. MMSI: 503379000.

Date/timePositionNaut miles runAvg speedWind from/ knotsBaromVisibWave heightAir tempDewpointWater temp
2018-Jun-23 13:59S 27°22' E 153°10'1 2.0
2018-Jun-23 13:29S 27°23' E 153°09'1 1.9
2018-Jun-23 12:57S 27°22' E 153°10'1 2.1
2018-Jun-23 12:30S 27°22' E 153°11'0 0.0
2018-Jun-23 12:00S 27°22' E 153°11'0 0.0
2018-Jun-23 11:30S 27°22' E 153°11'0 0.0
2018-Jun-23 11:00S 27°22' E 153°11'0 0.0
2018-Jun-23 10:30S 27°22' E 153°11'0 0.0
2018-Jun-23 10:00S 27°22' E 153°11'0 0.5
2018-Jun-23 09:30S 27°22' E 153°11'0 0.3
2018-Jun-23 09:00S 27°22' E 153°11'2 3.8
2018-Jun-23 08:30S 27°23' E 153°09'1 1.2
2018-Jun-23 07:49S 27°24' E 153°09'0 0.2
2018-Jun-23 07:30S 27°24' E 153°09'0 0.0
2018-Jun-23 06:58S 27°24' E 153°09'0 0.0
2018-Jun-23 05:17S 27°24' E 153°09'0 0.0
2018-Jun-22 19:45S 27°24' E 153°09'0 0.2
2018-Jun-22 18:51S 27°24' E 153°09'0 0.3
2018-Jun-22 18:17S 27°24' E 153°09'0 0.0
2018-Jun-22 17:41S 27°24' E 153°09'0 0.2
2018-Jun-22 17:26S 27°24' E 153°09'0 0.1
2018-Jun-22 17:00S 27°24' E 153°09'0 0.0
2018-Jun-22 16:27S 27°24' E 153°09'0 0.0
2018-Jun-22 13:20S 27°24' E 153°09'2 5.2
2018-Jun-22 12:57S 27°22' E 153°11'1 1.5
2018-Jun-22 12:31S 27°22' E 153°11'0 0.1
2018-Jun-22 11:59S 27°22' E 153°11'1 1.1
2018-Jun-22 11:30S 27°21' E 153°11'3 5.5
2018-Jun-22 10:57S 27°24' E 153°10'0 0.4
2018-Jun-22 10:28S 27°24' E 153°10'2 0.2
2018-Jun-21 22:51S 27°23' E 153°10'0 0.3
2018-Jun-21 22:26S 27°23' E 153°10'1 2.4
2018-Jun-21 21:58S 27°22' E 153°11'0 0.2
2018-Jun-21 20:46S 27°22' E 153°11'0 0.7
2018-Jun-21 20:28S 27°22' E 153°10'1 1.9
2018-Jun-21 20:00S 27°21' E 153°11'3 1.6
2018-Jun-21 17:59S 27°24' E 153°09'1 0.1
2018-Jun-20 19:58S 27°23' E 153°10'2 3.4
2018-Jun-20 19:29S 27°21' E 153°11'3 0.3
2018-Jun-20 07:52S 27°24' E 153°09'1 0.3
2018-Jun-20 05:16S 27°23' E 153°10'0 0.0
2018-Jun-20 04:55S 27°23' E 153°10'1 1.9
2018-Jun-20 04:25S 27°22' E 153°10'0 0.0
2018-Jun-20 00:28S 27°22' E 153°10'1 1.2
2018-Jun-19 23:58S 27°22' E 153°10'0 0.1
2018-Jun-19 21:33S 27°22' E 153°10'1 2.7
2018-Jun-19 21:18S 27°23' E 153°10'0 0.7
2018-Jun-19 20:44S 27°22' E 153°10'1 1.7
2018-Jun-19 20:22S 27°22' E 153°10'0 0.1
2018-Jun-19 15:29S 27°22' E 153°10'0 0.8
2018-Jun-19 15:00S 27°22' E 153°10'0 0.5
2018-Jun-19 14:11S 27°22' E 153°11'0 0.0
2018-Jun-19 13:17S 27°22' E 153°11'0 0.0
2018-Jun-19 12:55S 27°22' E 153°11'1 0.1
2018-Jun-19 03:51S 27°21' E 153°11'2 0.2
2018-Jun-18 20:50S 27°22' E 153°10'1 2.8
2018-Jun-18 20:20S 27°23' E 153°09'1 1.1
2018-Jun-18 19:40S 27°24' E 153°09'2 4.6
2018-Jun-18 19:16S 27°22' E 153°10'0 0.3
2018-Jun-18 17:34S 27°22' E 153°10'0 0.7
2018-Jun-18 17:24S 27°22' E 153°10'0 0.3
2018-Jun-18 16:59S 27°22' E 153°10'0 0.1
2018-Jun-18 16:21S 27°22' E 153°10'1 0.4
2018-Jun-18 14:39S 27°21' E 153°11'0 0.0
2018-Jun-18 14:28S 27°21' E 153°11'0 0.0
2018-Jun-18 13:59S 27°21' E 153°11'1 0.1
2018-Jun-18 06:13S 27°22' E 153°10'0 0.2
2018-Jun-18 04:05S 27°22' E 153°10'2 0.8
2018-Jun-18 02:11S 27°23' E 153°09'0 0.0
2018-Jun-18 01:54S 27°23' E 153°09'2 0.9
2018-Jun-18 00:09S 27°22' E 153°10'1 0.1
2018-Jun-17 16:38S 27°23' E 153°10'0 0.0
2018-Jun-17 16:29S 27°23' E 153°10'1 1.4
2018-Jun-17 15:58S 27°22' E 153°10'1 0.8
2018-Jun-17 14:00S 27°23' E 153°09'2 0.9
2018-Jun-17 11:53S 27°22' E 153°11'0 0.5
2018-Jun-17 11:28S 27°21' E 153°11'0 0.4
2018-Jun-17 10:59S 27°22' E 153°11'2 4.0
2018-Jun-17 10:24S 27°24' E 153°09'0 0.3
2018-Jun-17 08:40S 27°24' E 153°09'1 7.7
2018-Jun-17 08:30S 27°25' E 153°09'1 1.0
2018-Jun-17 07:17S 27°24' E 153°09'2 6.5
2018-Jun-17 07:00S 27°22' E 153°10'2 1.0
2018-Jun-17 05:06S 27°24' E 153°09'1 0.3
2018-Jun-17 02:16S 27°23' E 153°10'0 0.0
2018-Jun-17 02:00S 27°23' E 153°10'1 2.9
2018-Jun-17 01:30S 27°22' E 153°10'0 0.3
2018-Jun-17 01:00S 27°22' E 153°10'2 0.3
2018-Jun-16 18:47S 27°24' E 153°09'0 0.0
2018-Jun-16 18:26S 27°24' E 153°09'0 0.1
2018-Jun-16 17:50S 27°24' E 153°09'0 0.0
2018-Jun-16 17:26S 27°24' E 153°09'0 0.0
2018-Jun-16 16:56S 27°24' E 153°09'0 0.1
2018-Jun-16 16:26S 27°24' E 153°09'0 0.0
2018-Jun-16 15:56S 27°24' E 153°09'0 0.1
2018-Jun-16 15:29S 27°24' E 153°09'0 0.0
2018-Jun-16 14:56S 27°24' E 153°09'0 0.1
2018-Jun-16 14:26S 27°24' E 153°09'0 0.1
2018-Jun-16 13:50S 27°24' E 153°09'0 0.1
2018-Jun-16 13:26S 27°24' E 153°09'0 0.0
2018-Jun-16 12:50S 27°24' E 153°09'0 0.0
2018-Jun-16 12:26S 27°24' E 153°09'0 0.0
2018-Jun-16 11:56S 27°24' E 153°09'0 0.1
2018-Jun-16 11:26S 27°24' E 153°09'0 0.0
2018-Jun-16 10:56S 27°24' E 153°09'0 0.0
2018-Jun-16 10:26S 27°24' E 153°09'0 0.0
2018-Jun-16 08:22S 27°24' E 153°09'1 2.1
2018-Jun-16 07:43S 27°23' E 153°10'1 0.4
2018-Jun-16 04:28S 27°24' E 153°09'3 3.2
2018-Jun-16 03:34S 27°21' E 153°11'1 3.3
2018-Jun-16 03:25S 27°21' E 153°11'1 1.7
2018-Jun-16 02:59S 27°22' E 153°11'3 0.4
2018-Jun-15 19:35S 27°24' E 153°09'0 0.1
2018-Jun-15 19:08S 27°24' E 153°09'0 0.0
2018-Jun-15 15:50S 27°24' E 153°09'0 0.0
2018-Jun-15 15:14S 27°24' E 153°09'0 0.0
2018-Jun-15 14:50S 27°24' E 153°09'0 0.0
2018-Jun-15 14:20S 27°24' E 153°09'0 0.1
2018-Jun-15 13:50S 27°24' E 153°09'2 5.3
2018-Jun-15 13:30S 27°25' E 153°08'1 1.4
2018-Jun-15 13:00S 27°26' E 153°07'2 4.4
2018-Jun-15 12:30S 27°24' E 153°09'3 5.9
2018-Jun-15 12:00S 27°22' E 153°11'0 0.2
2018-Jun-15 11:29S 27°22' E 153°11'0 1.0
2018-Jun-15 11:00S 27°22' E 153°10'0 0.1
2018-Jun-15 10:30S 27°22' E 153°10'2 3.9
2018-Jun-15 09:57S 27°24' E 153°09'0 0.0
2018-Jun-15 09:27S 27°24' E 153°09'0 0.0
2018-Jun-15 08:06S 27°24' E 153°09'0 0.2
2018-Jun-15 07:45S 27°24' E 153°09'0 0.0
2018-Jun-15 07:27S 27°24' E 153°09'0 0.0
2018-Jun-14 13:30S 27°24' E 153°09'0 0.0
2018-Jun-14 13:00S 27°24' E 153°09'0 0.0
2018-Jun-14 10:54S 27°24' E 153°09'0 0.1
2018-Jun-14 10:24S 27°24' E 153°09'0 0.0
2018-Jun-14 09:48S 27°24' E 153°09'0 0.0
2018-Jun-14 07:29S 27°24' E 153°09'2 4.4
2018-Jun-14 07:01S 27°22' E 153°10'1 2.2
2018-Jun-14 06:29S 27°21' E 153°11'1 1.2
2018-Jun-14 06:00S 27°22' E 153°11'1 1.1
2018-Jun-14 05:31S 27°22' E 153°10'0 0.6
2018-Jun-14 05:00S 27°22' E 153°11'1 2.0
2018-Jun-14 04:30S 27°21' E 153°11'1 1.7
2018-Jun-14 04:00S 27°22' E 153°11'3 0.4
2018-Jun-13 21:44S 27°24' E 153°09'1 2.7
2018-Jun-13 21:30S 27°23' E 153°09'0 0.2
2018-Jun-13 21:01S 27°23' E 153°09'2 3.3
2018-Jun-13 20:30S 27°22' E 153°10'2 2.8
2018-Jun-13 19:39S 27°24' E 153°09'1 4.9
2018-Jun-13 19:30S 27°23' E 153°09'1 1.8
2018-Jun-13 18:59S 27°23' E 153°10'0 0.0
2018-Jun-13 18:29S 27°23' E 153°10'0 0.0
2018-Jun-13 17:59S 27°23' E 153°10'0 0.0
2018-Jun-13 14:47S 27°23' E 153°10'0 0.0
2018-Jun-13 14:29S 27°23' E 153°10'  
Track history (hours):
 
Tides and Currents Weather Stations Pressure Air Temp Water Temp Dewpoint Dewpoint Depression Visibility Wind Speed Wind Dir Waves Ship Positions

Clontarf

Last reported at 2018-Jun-23 13:59 UTC. Time now 2018-Jun-23 14:18 UTC.
Position S 27°22' E 153°10'.

Length 30 m; draft 5.6 m.

Type: Tug. MMSI: 503379000.

Date/timePositionNaut miles runAvg speedWind from/ knotsBaromVisibWave heightAir tempDewpointWater temp
2018-Jun-23 13:59S 27°22' E 153°10'1 2.0
2018-Jun-23 13:29S 27°23' E 153°09'1 1.9
2018-Jun-23 12:57S 27°22' E 153°10'1 2.1
2018-Jun-23 12:30S 27°22' E 153°11'0 0.0
2018-Jun-23 12:00S 27°22' E 153°11'0 0.0
2018-Jun-23 11:30S 27°22' E 153°11'0 0.0
2018-Jun-23 11:00S 27°22' E 153°11'0 0.0
2018-Jun-23 10:30S 27°22' E 153°11'0 0.0
2018-Jun-23 10:00S 27°22' E 153°11'0 0.5
2018-Jun-23 09:30S 27°22' E 153°11'0 0.3
2018-Jun-23 09:00S 27°22' E 153°11'2 3.8
2018-Jun-23 08:30S 27°23' E 153°09'1 1.2
2018-Jun-23 07:49S 27°24' E 153°09'0 0.2
2018-Jun-23 07:30S 27°24' E 153°09'0 0.0
2018-Jun-23 06:58S 27°24' E 153°09'0 0.0
2018-Jun-23 05:17S 27°24' E 153°09'0 0.0
2018-Jun-22 19:45S 27°24' E 153°09'0 0.2
2018-Jun-22 18:51S 27°24' E 153°09'0 0.3
2018-Jun-22 18:17S 27°24' E 153°09'0 0.0
2018-Jun-22 17:41S 27°24' E 153°09'0 0.2
2018-Jun-22 17:26S 27°24' E 153°09'0 0.1
2018-Jun-22 17:00S 27°24' E 153°09'0 0.0
2018-Jun-22 16:27S 27°24' E 153°09'0 0.0
2018-Jun-22 13:20S 27°24' E 153°09'2 5.2
2018-Jun-22 12:57S 27°22' E 153°11'1 1.5
2018-Jun-22 12:31S 27°22' E 153°11'0 0.1
2018-Jun-22 11:59S 27°22' E 153°11'1 1.1
2018-Jun-22 11:30S 27°21' E 153°11'3 5.5
2018-Jun-22 10:57S 27°24' E 153°10'0 0.4
2018-Jun-22 10:28S 27°24' E 153°10'2 0.2
2018-Jun-21 22:51S 27°23' E 153°10'0 0.3
2018-Jun-21 22:26S 27°23' E 153°10'1 2.4
2018-Jun-21 21:58S 27°22' E 153°11'0 0.2
2018-Jun-21 20:46S 27°22' E 153°11'0 0.7
2018-Jun-21 20:28S 27°22' E 153°10'1 1.9
2018-Jun-21 20:00S 27°21' E 153°11'3 1.6
2018-Jun-21 17:59S 27°24' E 153°09'1 0.1
2018-Jun-20 19:58S 27°23' E 153°10'2 3.4
2018-Jun-20 19:29S 27°21' E 153°11'3 0.3
2018-Jun-20 07:52S 27°24' E 153°09'1 0.3
2018-Jun-20 05:16S 27°23' E 153°10'0 0.0
2018-Jun-20 04:55S 27°23' E 153°10'1 1.9
2018-Jun-20 04:25S 27°22' E 153°10'0 0.0
2018-Jun-20 00:28S 27°22' E 153°10'1 1.2
2018-Jun-19 23:58S 27°22' E 153°10'0 0.1
2018-Jun-19 21:33S 27°22' E 153°10'1 2.7
2018-Jun-19 21:18S 27°23' E 153°10'0 0.7
2018-Jun-19 20:44S 27°22' E 153°10'1 1.7
2018-Jun-19 20:22S 27°22' E 153°10'0 0.1
2018-Jun-19 15:29S 27°22' E 153°10'0 0.8
2018-Jun-19 15:00S 27°22' E 153°10'0 0.5
2018-Jun-19 14:11S 27°22' E 153°11'0 0.0
2018-Jun-19 13:17S 27°22' E 153°11'0 0.0
2018-Jun-19 12:55S 27°22' E 153°11'1 0.1
2018-Jun-19 03:51S 27°21' E 153°11'2 0.2
2018-Jun-18 20:50S 27°22' E 153°10'1 2.8
2018-Jun-18 20:20S 27°23' E 153°09'1 1.1
2018-Jun-18 19:40S 27°24' E 153°09'2 4.6
2018-Jun-18 19:16S 27°22' E 153°10'0 0.3
2018-Jun-18 17:34S 27°22' E 153°10'0 0.7
2018-Jun-18 17:24S 27°22' E 153°10'0 0.3
2018-Jun-18 16:59S 27°22' E 153°10'0 0.1
2018-Jun-18 16:21S 27°22' E 153°10'1 0.4
2018-Jun-18 14:39S 27°21' E 153°11'0 0.0
2018-Jun-18 14:28S 27°21' E 153°11'0 0.0
2018-Jun-18 13:59S 27°21' E 153°11'1 0.1
2018-Jun-18 06:13S 27°22' E 153°10'0 0.2
2018-Jun-18 04:05S 27°22' E 153°10'2 0.8
2018-Jun-18 02:11S 27°23' E 153°09'0 0.0
2018-Jun-18 01:54S 27°23' E 153°09'2 0.9
2018-Jun-18 00:09S 27°22' E 153°10'1 0.1
2018-Jun-17 16:38S 27°23' E 153°10'0 0.0
2018-Jun-17 16:29S 27°23' E 153°10'1 1.4
2018-Jun-17 15:58S 27°22' E 153°10'1 0.8
2018-Jun-17 14:00S 27°23' E 153°09'2 0.9
2018-Jun-17 11:53S 27°22' E 153°11'0 0.5
2018-Jun-17 11:28S 27°21' E 153°11'0 0.4
2018-Jun-17 10:59S 27°22' E 153°11'2 4.0
2018-Jun-17 10:24S 27°24' E 153°09'0 0.3
2018-Jun-17 08:40S 27°24' E 153°09'1 7.7
2018-Jun-17 08:30S 27°25' E 153°09'1 1.0
2018-Jun-17 07:17S 27°24' E 153°09'2 6.5
2018-Jun-17 07:00S 27°22' E 153°10'2 1.0
2018-Jun-17 05:06S 27°24' E 153°09'1 0.3
2018-Jun-17 02:16S 27°23' E 153°10'0 0.0
2018-Jun-17 02:00S 27°23' E 153°10'1 2.9
2018-Jun-17 01:30S 27°22' E 153°10'0 0.3
2018-Jun-17 01:00S 27°22' E 153°10'2 0.3
2018-Jun-16 18:47S 27°24' E 153°09'0 0.0
2018-Jun-16 18:26S 27°24' E 153°09'0 0.1
2018-Jun-16 17:50S 27°24' E 153°09'0 0.0
2018-Jun-16 17:26S 27°24' E 153°09'0 0.0
2018-Jun-16 16:56S 27°24' E 153°09'0 0.1
2018-Jun-16 16:26S 27°24' E 153°09'0 0.0
2018-Jun-16 15:56S 27°24' E 153°09'0 0.1
2018-Jun-16 15:29S 27°24' E 153°09'0 0.0
2018-Jun-16 14:56S 27°24' E 153°09'0 0.1
2018-Jun-16 14:26S 27°24' E 153°09'0 0.1
2018-Jun-16 13:50S 27°24' E 153°09'0 0.1
2018-Jun-16 13:26S 27°24' E 153°09'0 0.0
2018-Jun-16 12:50S 27°24' E 153°09'0 0.0
2018-Jun-16 12:26S 27°24' E 153°09'0 0.0
2018-Jun-16 11:56S 27°24' E 153°09'0 0.1
2018-Jun-16 11:26S 27°24' E 153°09'0 0.0
2018-Jun-16 10:56S 27°24' E 153°09'0 0.0
2018-Jun-16 10:26S 27°24' E 153°09'0 0.0
2018-Jun-16 08:22S 27°24' E 153°09'1 2.1
2018-Jun-16 07:43S 27°23' E 153°10'1 0.4
2018-Jun-16 04:28S 27°24' E 153°09'3 3.2
2018-Jun-16 03:34S 27°21' E 153°11'1 3.3
2018-Jun-16 03:25S 27°21' E 153°11'1 1.7
2018-Jun-16 02:59S 27°22' E 153°11'3 0.4
2018-Jun-15 19:35S 27°24' E 153°09'0 0.1
2018-Jun-15 19:08S 27°24' E 153°09'0 0.0
2018-Jun-15 15:50S 27°24' E 153°09'0 0.0
2018-Jun-15 15:14S 27°24' E 153°09'0 0.0
2018-Jun-15 14:50S 27°24' E 153°09'0 0.0
2018-Jun-15 14:20S 27°24' E 153°09'0 0.1
2018-Jun-15 13:50S 27°24' E 153°09'2 5.3
2018-Jun-15 13:30S 27°25' E 153°08'1 1.4
2018-Jun-15 13:00S 27°26' E 153°07'2 4.4
2018-Jun-15 12:30S 27°24' E 153°09'3 5.9
2018-Jun-15 12:00S 27°22' E 153°11'0 0.2
2018-Jun-15 11:29S 27°22' E 153°11'0 1.0
2018-Jun-15 11:00S 27°22' E 153°10'0 0.1
2018-Jun-15 10:30S 27°22' E 153°10'2 3.9
2018-Jun-15 09:57S 27°24' E 153°09'0 0.0
2018-Jun-15 09:27S 27°24' E 153°09'0 0.0
2018-Jun-15 08:06S 27°24' E 153°09'0 0.2
2018-Jun-15 07:45S 27°24' E 153°09'0 0.0
2018-Jun-15 07:27S 27°24' E 153°09'0 0.0
2018-Jun-14 13:30S 27°24' E 153°09'0 0.0
2018-Jun-14 13:00S 27°24' E 153°09'0 0.0
2018-Jun-14 10:54S 27°24' E 153°09'0 0.1
2018-Jun-14 10:24S 27°24' E 153°09'0 0.0
2018-Jun-14 09:48S 27°24' E 153°09'0 0.0
2018-Jun-14 07:29S 27°24' E 153°09'2 4.4
2018-Jun-14 07:01S 27°22' E 153°10'1 2.2
2018-Jun-14 06:29S 27°21' E 153°11'1 1.2
2018-Jun-14 06:00S 27°22' E 153°11'1 1.1
2018-Jun-14 05:31S 27°22' E 153°10'0 0.6
2018-Jun-14 05:00S 27°22' E 153°11'1 2.0
2018-Jun-14 04:30S 27°21' E 153°11'1 1.7
2018-Jun-14 04:00S 27°22' E 153°11'3 0.4
2018-Jun-13 21:44S 27°24' E 153°09'1 2.7
2018-Jun-13 21:30S 27°23' E 153°09'0 0.2
2018-Jun-13 21:01S 27°23' E 153°09'2 3.3
2018-Jun-13 20:30S 27°22' E 153°10'2 2.8
2018-Jun-13 19:39S 27°24' E 153°09'1 4.9
2018-Jun-13 19:30S 27°23' E 153°09'1 1.8
2018-Jun-13 18:59S 27°23' E 153°10'0 0.0
2018-Jun-13 18:29S 27°23' E 153°10'0 0.0
2018-Jun-13 17:59S 27°23' E 153°10'0 0.0
2018-Jun-13 14:47S 27°23' E 153°10'0 0.0
2018-Jun-13 14:29S 27°23' E 153°10'  

Dump ship's entire track history